sensor_id;sensor_type;location;lat;lon;timestamp;P1;durP1;ratioP1;P2;durP2;ratioP2
6135;SDS011;24008;42.664;23.372;2022-07-22T00:00:43;11.23;;;7.53;;
6135;SDS011;24008;42.664;23.372;2022-07-22T00:03:11;7.90;;;7.10;;
6135;SDS011;24008;42.664;23.372;2022-07-22T00:05:38;11.00;;;7.55;;
6135;SDS011;24008;42.664;23.372;2022-07-22T00:08:05;10.40;;;6.88;;
6135;SDS011;24008;42.664;23.372;2022-07-22T00:10:33;9.82;;;6.65;;
6135;SDS011;24008;42.664;23.372;2022-07-22T00:13:00;9.52;;;7.00;;
6135;SDS011;24008;42.664;23.372;2022-07-22T00:15:27;9.45;;;6.90;;
6135;SDS011;24008;42.664;23.372;2022-07-22T00:17:54;9.40;;;6.28;;
6135;SDS011;24008;42.664;23.372;2022-07-22T00:20:21;10.00;;;5.90;;
6135;SDS011;24008;42.664;23.372;2022-07-22T00:22:48;9.13;;;5.40;;
6135;SDS011;24008;42.664;23.372;2022-07-22T00:25:15;6.53;;;5.57;;
6135;SDS011;24008;42.664;23.372;2022-07-22T00:27:43;8.93;;;5.88;;
6135;SDS011;24008;42.664;23.372;2022-07-22T00:30:10;9.45;;;5.60;;
6135;SDS011;24008;42.664;23.372;2022-07-22T00:32:38;9.50;;;5.80;;
6135;SDS011;24008;42.664;23.372;2022-07-22T00:35:05;8.23;;;6.25;;
6135;SDS011;24008;42.664;23.372;2022-07-22T00:37:33;9.32;;;6.25;;
6135;SDS011;24008;42.664;23.372;2022-07-22T00:40:00;8.48;;;6.93;;
6135;SDS011;24008;42.664;23.372;2022-07-22T00:42:27;7.97;;;6.22;;
6135;SDS011;24008;42.664;23.372;2022-07-22T00:44:55;9.07;;;5.90;;
6135;SDS011;24008;42.664;23.372;2022-07-22T00:47:22;9.68;;;6.45;;
6135;SDS011;24008;42.664;23.372;2022-07-22T00:49:49;10.18;;;7.03;;
6135;SDS011;24008;42.664;23.372;2022-07-22T00:52:17;11.55;;;6.90;;
6135;SDS011;24008;42.664;23.372;2022-07-22T00:54:44;11.65;;;6.60;;
6135;SDS011;24008;42.664;23.372;2022-07-22T00:57:11;10.15;;;7.13;;
6135;SDS011;24008;42.664;23.372;2022-07-22T00:59:39;10.18;;;6.10;;
6135;SDS011;24008;42.664;23.372;2022-07-22T01:02:09;8.07;;;6.10;;
6135;SDS011;24008;42.664;23.372;2022-07-22T01:04:36;8.15;;;6.18;;
6135;SDS011;24008;42.664;23.372;2022-07-22T01:07:03;7.70;;;6.10;;
6135;SDS011;24008;42.664;23.372;2022-07-22T01:09:30;7.97;;;6.30;;
6135;SDS011;24008;42.664;23.372;2022-07-22T01:11:57;9.03;;;6.23;;
6135;SDS011;24008;42.664;23.372;2022-07-22T01:14:24;7.37;;;5.97;;
6135;SDS011;24008;42.664;23.372;2022-07-22T01:16:51;8.90;;;6.57;;
6135;SDS011;24008;42.664;23.372;2022-07-22T01:19:19;11.93;;;6.60;;
6135;SDS011;24008;42.664;23.372;2022-07-22T01:21:47;9.63;;;6.03;;
6135;SDS011;24008;42.664;23.372;2022-07-22T01:24:14;8.10;;;6.23;;
6135;SDS011;24008;42.664;23.372;2022-07-22T01:26:41;7.30;;;6.07;;
6135;SDS011;24008;42.664;23.372;2022-07-22T01:29:08;10.87;;;6.37;;
6135;SDS011;24008;42.664;23.372;2022-07-22T01:31:35;9.43;;;6.70;;
6135;SDS011;24008;42.664;23.372;2022-07-22T01:34:02;9.37;;;6.50;;
6135;SDS011;24008;42.664;23.372;2022-07-22T01:36:30;9.97;;;6.93;;
6135;SDS011;24008;42.664;23.372;2022-07-22T01:38:58;7.30;;;6.60;;
6135;SDS011;24008;42.664;23.372;2022-07-22T01:41:25;8.40;;;6.67;;
6135;SDS011;24008;42.664;23.372;2022-07-22T01:43:52;8.10;;;6.80;;
6135;SDS011;24008;42.664;23.372;2022-07-22T01:46:19;9.10;;;7.43;;
6135;SDS011;24008;42.664;23.372;2022-07-22T01:48:48;8.27;;;7.03;;
6135;SDS011;24008;42.664;23.372;2022-07-22T01:51:15;7.93;;;6.90;;
6135;SDS011;24008;42.664;23.372;2022-07-22T01:53:42;9.80;;;7.30;;
6135;SDS011;24008;42.664;23.372;2022-07-22T01:56:11;11.27;;;7.23;;
6135;SDS011;24008;42.664;23.372;2022-07-22T01:58:38;16.03;;;8.50;;
6135;SDS011;24008;42.664;23.372;2022-07-22T02:01:05;13.70;;;9.37;;
6135;SDS011;24008;42.664;23.372;2022-07-22T02:03:32;11.67;;;7.60;;
6135;SDS011;24008;42.664;23.372;2022-07-22T02:05:59;10.43;;;8.17;;
6135;SDS011;24008;42.664;23.372;2022-07-22T02:08:26;11.07;;;7.67;;
6135;SDS011;24008;42.664;23.372;2022-07-22T02:10:53;10.10;;;8.53;;
6135;SDS011;24008;42.664;23.372;2022-07-22T02:13:21;10.60;;;7.40;;
6135;SDS011;24008;42.664;23.372;2022-07-22T02:15:48;10.10;;;7.40;;
6135;SDS011;24008;42.664;23.372;2022-07-22T02:18:15;12.90;;;7.57;;
6135;SDS011;24008;42.664;23.372;2022-07-22T02:20:44;13.53;;;8.90;;
6135;SDS011;24008;42.664;23.372;2022-07-22T02:23:11;12.50;;;7.83;;
6135;SDS011;24008;42.664;23.372;2022-07-22T02:25:39;12.13;;;7.57;;
6135;SDS011;24008;42.664;23.372;2022-07-22T02:28:07;12.10;;;8.50;;
6135;SDS011;24008;42.664;23.372;2022-07-22T02:30:36;11.70;;;8.57;;
6135;SDS011;24008;42.664;23.372;2022-07-22T02:33:03;13.10;;;9.00;;
6135;SDS011;24008;42.664;23.372;2022-07-22T02:35:30;13.00;;;7.70;;
6135;SDS011;24008;42.664;23.372;2022-07-22T02:37:57;8.50;;;7.60;;
6135;SDS011;24008;42.664;23.372;2022-07-22T02:40:24;11.00;;;8.63;;
6135;SDS011;24008;42.664;23.372;2022-07-22T02:42:51;12.23;;;8.50;;
6135;SDS011;24008;42.664;23.372;2022-07-22T02:45:18;11.40;;;8.13;;
6135;SDS011;24008;42.664;23.372;2022-07-22T02:47:48;9.70;;;8.40;;
6135;SDS011;24008;42.664;23.372;2022-07-22T02:50:15;12.43;;;8.90;;
6135;SDS011;24008;42.664;23.372;2022-07-22T02:52:43;16.80;;;9.47;;
6135;SDS011;24008;42.664;23.372;2022-07-22T02:55:09;13.43;;;8.80;;
6135;SDS011;24008;42.664;23.372;2022-07-22T02:57:36;10.43;;;7.77;;
6135;SDS011;24008;42.664;23.372;2022-07-22T03:00:05;14.77;;;9.10;;
6135;SDS011;24008;42.664;23.372;2022-07-22T03:02:33;13.40;;;8.93;;
6135;SDS011;24008;42.664;23.372;2022-07-22T03:05:01;13.93;;;9.13;;
6135;SDS011;24008;42.664;23.372;2022-07-22T03:07:28;16.10;;;8.77;;
6135;SDS011;24008;42.664;23.372;2022-07-22T03:09:55;9.13;;;7.97;;
6135;SDS011;24008;42.664;23.372;2022-07-22T03:12:22;13.90;;;8.50;;
6135;SDS011;24008;42.664;23.372;2022-07-22T03:14:49;18.20;;;9.87;;
6135;SDS011;24008;42.664;23.372;2022-07-22T03:17:16;19.43;;;12.13;;
6135;SDS011;24008;42.664;23.372;2022-07-22T03:19:43;12.90;;;8.70;;
6135;SDS011;24008;42.664;23.372;2022-07-22T03:22:11;14.67;;;9.00;;
6135;SDS011;24008;42.664;23.372;2022-07-22T03:24:38;19.63;;;9.97;;
6135;SDS011;24008;42.664;23.372;2022-07-22T03:27:05;16.47;;;10.20;;
6135;SDS011;24008;42.664;23.372;2022-07-22T03:29:32;15.37;;;9.90;;
6135;SDS011;24008;42.664;23.372;2022-07-22T03:31:59;13.53;;;9.87;;
6135;SDS011;24008;42.664;23.372;2022-07-22T03:34:26;15.53;;;8.73;;
6135;SDS011;24008;42.664;23.372;2022-07-22T03:36:53;19.63;;;10.40;;
6135;SDS011;24008;42.664;23.372;2022-07-22T03:39:21;23.10;;;14.93;;
6135;SDS011;24008;42.664;23.372;2022-07-22T03:41:48;20.67;;;14.80;;
6135;SDS011;24008;42.664;23.372;2022-07-22T03:44:15;40.23;;;28.77;;
6135;SDS011;24008;42.664;23.372;2022-07-22T03:46:42;58.73;;;42.23;;
6135;SDS011;24008;42.664;23.372;2022-07-22T03:49:09;19.37;;;12.23;;
6135;SDS011;24008;42.664;23.372;2022-07-22T03:51:36;15.33;;;10.70;;
6135;SDS011;24008;42.664;23.372;2022-07-22T03:54:03;16.97;;;11.97;;
6135;SDS011;24008;42.664;23.372;2022-07-22T03:56:32;20.20;;;14.73;;
6135;SDS011;24008;42.664;23.372;2022-07-22T03:58:59;25.17;;;16.33;;
6135;SDS011;24008;42.664;23.372;2022-07-22T04:01:26;18.73;;;11.57;;
6135;SDS011;24008;42.664;23.372;2022-07-22T04:03:53;16.93;;;10.63;;
6135;SDS011;24008;42.664;23.372;2022-07-22T04:06:20;14.40;;;9.63;;
6135;SDS011;24008;42.664;23.372;2022-07-22T04:08:47;15.30;;;11.03;;
6135;SDS011;24008;42.664;23.372;2022-07-22T04:11:14;27.13;;;17.87;;
6135;SDS011;24008;42.664;23.372;2022-07-22T04:13:42;23.17;;;13.47;;
6135;SDS011;24008;42.664;23.372;2022-07-22T04:16:09;19.83;;;11.63;;
6135;SDS011;24008;42.664;23.372;2022-07-22T04:18:36;16.43;;;11.13;;
6135;SDS011;24008;42.664;23.372;2022-07-22T04:21:03;17.00;;;12.33;;
6135;SDS011;24008;42.664;23.372;2022-07-22T04:23:30;14.07;;;10.27;;
6135;SDS011;24008;42.664;23.372;2022-07-22T04:25:57;17.23;;;10.43;;
6135;SDS011;24008;42.664;23.372;2022-07-22T04:28:24;15.00;;;11.27;;
6135;SDS011;24008;42.664;23.372;2022-07-22T04:30:52;17.37;;;10.70;;
6135;SDS011;24008;42.664;23.372;2022-07-22T04:33:19;21.13;;;11.73;;
6135;SDS011;24008;42.664;23.372;2022-07-22T04:35:46;24.57;;;12.47;;
6135;SDS011;24008;42.664;23.372;2022-07-22T04:38:13;20.53;;;13.90;;
6135;SDS011;24008;42.664;23.372;2022-07-22T04:40:41;17.93;;;11.63;;
6135;SDS011;24008;42.664;23.372;2022-07-22T04:43:08;20.87;;;11.20;;
6135;SDS011;24008;42.664;23.372;2022-07-22T04:45:35;18.17;;;11.55;;
6135;SDS011;24008;42.664;23.372;2022-07-22T04:48:04;19.13;;;10.98;;
6135;SDS011;24008;42.664;23.372;2022-07-22T04:50:31;21.98;;;11.82;;
6135;SDS011;24008;42.664;23.372;2022-07-22T04:52:58;19.88;;;11.20;;
6135;SDS011;24008;42.664;23.372;2022-07-22T04:55:25;22.95;;;12.18;;
6135;SDS011;24008;42.664;23.372;2022-07-22T04:57:52;17.45;;;11.05;;
6135;SDS011;24008;42.664;23.372;2022-07-22T05:00:19;19.95;;;11.40;;
6135;SDS011;24008;42.664;23.372;2022-07-22T05:02:46;15.95;;;10.98;;
6135;SDS011;24008;42.664;23.372;2022-07-22T05:05:14;21.27;;;11.52;;
6135;SDS011;24008;42.664;23.372;2022-07-22T05:07:41;16.67;;;10.35;;
6135;SDS011;24008;42.664;23.372;2022-07-22T05:10:08;13.40;;;9.20;;
6135;SDS011;24008;42.664;23.372;2022-07-22T05:12:35;21.83;;;10.52;;
6135;SDS011;24008;42.664;23.372;2022-07-22T05:15:03;17.60;;;10.38;;
6135;SDS011;24008;42.664;23.372;2022-07-22T05:17:30;19.88;;;10.13;;
6135;SDS011;24008;42.664;23.372;2022-07-22T05:19:57;14.75;;;9.95;;
6135;SDS011;24008;42.664;23.372;2022-07-22T05:22:25;13.55;;;9.50;;
6135;SDS011;24008;42.664;23.372;2022-07-22T05:24:52;19.35;;;9.70;;
6135;SDS011;24008;42.664;23.372;2022-07-22T05:27:19;13.75;;;9.75;;
6135;SDS011;24008;42.664;23.372;2022-07-22T05:29:46;11.07;;;9.88;;
6135;SDS011;24008;42.664;23.372;2022-07-22T05:32:13;14.15;;;10.38;;
6135;SDS011;24008;42.664;23.372;2022-07-22T05:34:40;18.25;;;11.02;;
6135;SDS011;24008;42.664;23.372;2022-07-22T05:37:07;11.52;;;9.30;;
6135;SDS011;24008;42.664;23.372;2022-07-22T05:39:35;19.60;;;10.25;;
6135;SDS011;24008;42.664;23.372;2022-07-22T05:42:02;13.27;;;9.80;;
6135;SDS011;24008;42.664;23.372;2022-07-22T05:44:29;12.10;;;9.45;;
6135;SDS011;24008;42.664;23.372;2022-07-22T05:46:56;16.30;;;10.18;;
6135;SDS011;24008;42.664;23.372;2022-07-22T05:49:23;16.15;;;9.73;;
6135;SDS011;24008;42.664;23.372;2022-07-22T05:51:51;14.40;;;9.98;;
6135;SDS011;24008;42.664;23.372;2022-07-22T05:54:19;17.27;;;9.80;;
6135;SDS011;24008;42.664;23.372;2022-07-22T05:56:47;17.38;;;9.27;;
6135;SDS011;24008;42.664;23.372;2022-07-22T05:59:14;14.15;;;9.13;;
6135;SDS011;24008;42.664;23.372;2022-07-22T06:01:41;14.50;;;9.63;;
6135;SDS011;24008;42.664;23.372;2022-07-22T06:04:08;20.08;;;9.18;;
6135;SDS011;24008;42.664;23.372;2022-07-22T06:06:35;16.80;;;9.88;;
6135;SDS011;24008;42.664;23.372;2022-07-22T06:09:02;13.23;;;10.23;;
6135;SDS011;24008;42.664;23.372;2022-07-22T06:11:29;14.82;;;9.88;;
6135;SDS011;24008;42.664;23.372;2022-07-22T06:13:57;15.35;;;10.38;;
6135;SDS011;24008;42.664;23.372;2022-07-22T06:16:24;14.30;;;9.63;;
6135;SDS011;24008;42.664;23.372;2022-07-22T06:18:51;14.75;;;10.10;;
6135;SDS011;24008;42.664;23.372;2022-07-22T06:21:18;17.67;;;9.95;;
6135;SDS011;24008;42.664;23.372;2022-07-22T06:23:45;15.52;;;9.50;;
6135;SDS011;24008;42.664;23.372;2022-07-22T06:26:12;16.83;;;9.70;;
6135;SDS011;24008;42.664;23.372;2022-07-22T06:28:39;18.40;;;10.82;;
6135;SDS011;24008;42.664;23.372;2022-07-22T06:31:07;19.23;;;10.50;;
6135;SDS011;24008;42.664;23.372;2022-07-22T06:33:34;15.30;;;9.80;;
6135;SDS011;24008;42.664;23.372;2022-07-22T06:36:01;16.30;;;10.82;;
6135;SDS011;24008;42.664;23.372;2022-07-22T06:38:28;19.08;;;9.57;;
6135;SDS011;24008;42.664;23.372;2022-07-22T06:40:55;16.27;;;10.15;;
6135;SDS011;24008;42.664;23.372;2022-07-22T06:43:22;18.17;;;10.88;;
6135;SDS011;24008;42.664;23.372;2022-07-22T06:45:49;17.95;;;10.60;;
6135;SDS011;24008;42.664;23.372;2022-07-22T06:48:17;15.18;;;10.27;;
6135;SDS011;24008;42.664;23.372;2022-07-22T06:50:44;18.88;;;10.52;;
6135;SDS011;24008;42.664;23.372;2022-07-22T06:53:11;20.52;;;10.38;;
6135;SDS011;24008;42.664;23.372;2022-07-22T06:55:38;13.95;;;9.18;;
6135;SDS011;24008;42.664;23.372;2022-07-22T06:58:05;19.17;;;14.93;;
6135;SDS011;24008;42.664;23.372;2022-07-22T07:00:32;16.02;;;9.10;;
6135;SDS011;24008;42.664;23.372;2022-07-22T07:02:59;16.25;;;9.02;;
6135;SDS011;24008;42.664;23.372;2022-07-22T07:05:27;18.95;;;9.05;;
6135;SDS011;24008;42.664;23.372;2022-07-22T07:07:55;18.25;;;9.50;;
6135;SDS011;24008;42.664;23.372;2022-07-22T07:10:22;16.05;;;9.10;;
6135;SDS011;24008;42.664;23.372;2022-07-22T07:12:49;20.02;;;10.38;;
6135;SDS011;24008;42.664;23.372;2022-07-22T07:15:16;14.30;;;7.90;;
6135;SDS011;24008;42.664;23.372;2022-07-22T07:17:43;21.23;;;8.35;;
6135;SDS011;24008;42.664;23.372;2022-07-22T07:20:10;16.00;;;7.40;;
6135;SDS011;24008;42.664;23.372;2022-07-22T07:22:39;14.45;;;7.80;;
6135;SDS011;24008;42.664;23.372;2022-07-22T07:25:07;12.30;;;7.53;;
6135;SDS011;24008;42.664;23.372;2022-07-22T07:27:35;11.32;;;6.78;;
6135;SDS011;24008;42.664;23.372;2022-07-22T07:30:02;12.57;;;6.78;;
6135;SDS011;24008;42.664;23.372;2022-07-22T07:32:30;11.00;;;7.43;;
6135;SDS011;24008;42.664;23.372;2022-07-22T07:34:57;19.95;;;8.07;;
6135;SDS011;24008;42.664;23.372;2022-07-22T07:37:24;44.03;;;10.38;;
6135;SDS011;24008;42.664;23.372;2022-07-22T07:39:52;174.15;;;24.67;;
6135;SDS011;24008;42.664;23.372;2022-07-22T07:42:19;16.10;;;6.97;;
6135;SDS011;24008;42.664;23.372;2022-07-22T07:44:46;222.75;;;26.45;;
6135;SDS011;24008;42.664;23.372;2022-07-22T07:47:13;65.20;;;13.70;;
6135;SDS011;24008;42.664;23.372;2022-07-22T07:49:42;92.55;;;15.43;;
6135;SDS011;24008;42.664;23.372;2022-07-22T07:52:09;23.20;;;8.27;;
6135;SDS011;24008;42.664;23.372;2022-07-22T07:54:37;46.55;;;10.70;;
6135;SDS011;24008;42.664;23.372;2022-07-22T07:57:06;11.20;;;6.53;;
6135;SDS011;24008;42.664;23.372;2022-07-22T07:59:34;21.05;;;7.47;;
6135;SDS011;24008;42.664;23.372;2022-07-22T08:02:01;33.50;;;8.25;;
6135;SDS011;24008;42.664;23.372;2022-07-22T08:04:28;33.55;;;11.82;;
6135;SDS011;24008;42.664;23.372;2022-07-22T08:06:56;8.13;;;6.30;;
6135;SDS011;24008;42.664;23.372;2022-07-22T08:09:23;17.92;;;7.90;;
6135;SDS011;24008;42.664;23.372;2022-07-22T08:11:50;11.13;;;6.07;;
6135;SDS011;24008;42.664;23.372;2022-07-22T08:14:19;9.30;;;6.13;;
6135;SDS011;24008;42.664;23.372;2022-07-22T08:16:46;11.65;;;8.80;;
6135;SDS011;24008;42.664;23.372;2022-07-22T08:19:12;10.68;;;5.40;;
6135;SDS011;24008;42.664;23.372;2022-07-22T08:21:39;15.10;;;7.90;;
6135;SDS011;24008;42.664;23.372;2022-07-22T08:24:08;15.02;;;8.10;;
6135;SDS011;24008;42.664;23.372;2022-07-22T08:26:34;12.70;;;6.88;;
6135;SDS011;24008;42.664;23.372;2022-07-22T08:29:01;9.63;;;5.93;;
6135;SDS011;24008;42.664;23.372;2022-07-22T08:31:30;14.55;;;7.22;;
6135;SDS011;24008;42.664;23.372;2022-07-22T08:33:59;9.10;;;6.00;;
6135;SDS011;24008;42.664;23.372;2022-07-22T08:36:26;11.52;;;5.85;;
6135;SDS011;24008;42.664;23.372;2022-07-22T08:38:53;8.57;;;6.25;;
6135;SDS011;24008;42.664;23.372;2022-07-22T08:41:21;14.90;;;6.80;;
6135;SDS011;24008;42.664;23.372;2022-07-22T08:43:49;12.02;;;6.32;;
6135;SDS011;24008;42.664;23.372;2022-07-22T08:46:17;6.20;;;5.60;;
6135;SDS011;24008;42.664;23.372;2022-07-22T08:48:45;14.13;;;6.32;;
6135;SDS011;24008;42.664;23.372;2022-07-22T08:51:13;9.30;;;5.50;;
6135;SDS011;24008;42.664;23.372;2022-07-22T08:53:40;12.63;;;6.60;;
6135;SDS011;24008;42.664;23.372;2022-07-22T08:56:07;9.50;;;5.00;;
6135;SDS011;24008;42.664;23.372;2022-07-22T08:58:34;10.23;;;7.22;;
6135;SDS011;24008;42.664;23.372;2022-07-22T09:01:04;11.02;;;5.97;;
6135;SDS011;24008;42.664;23.372;2022-07-22T09:03:33;10.75;;;6.03;;
6135;SDS011;24008;42.664;23.372;2022-07-22T09:06:01;9.60;;;5.05;;
6135;SDS011;24008;42.664;23.372;2022-07-22T09:08:30;11.88;;;5.68;;
6135;SDS011;24008;42.664;23.372;2022-07-22T09:11:16;26.60;;;7.60;;
6135;SDS011;24008;42.664;23.372;2022-07-22T09:13:44;6.35;;;5.43;;
6135;SDS011;24008;42.664;23.372;2022-07-22T09:16:12;10.57;;;5.50;;
6135;SDS011;24008;42.664;23.372;2022-07-22T09:18:49;10.80;;;5.70;;
6135;SDS011;24008;42.664;23.372;2022-07-22T09:21:19;19.30;;;6.65;;
6135;SDS011;24008;42.664;23.372;2022-07-22T09:23:47;9.25;;;5.57;;
6135;SDS011;24008;42.664;23.372;2022-07-22T09:26:29;6.20;;;5.40;;
6135;SDS011;24008;42.664;23.372;2022-07-22T09:28:57;22.45;;;7.07;;
6135;SDS011;24008;42.664;23.372;2022-07-22T09:31:25;12.32;;;6.38;;
6135;SDS011;24008;42.664;23.372;2022-07-22T09:33:54;26.27;;;6.75;;
6135;SDS011;24008;42.664;23.372;2022-07-22T09:36:22;16.92;;;5.72;;
6135;SDS011;24008;42.664;23.372;2022-07-22T09:38:50;6.47;;;4.88;;
6135;SDS011;24008;42.664;23.372;2022-07-22T09:41:17;10.90;;;5.32;;
6135;SDS011;24008;42.664;23.372;2022-07-22T09:43:44;11.23;;;5.82;;
6135;SDS011;24008;42.664;23.372;2022-07-22T09:46:12;8.75;;;5.15;;
6135;SDS011;24008;42.664;23.372;2022-07-22T09:48:39;6.90;;;5.13;;
6135;SDS011;24008;42.664;23.372;2022-07-22T09:51:07;9.52;;;5.68;;
6135;SDS011;24008;42.664;23.372;2022-07-22T09:53:35;7.80;;;5.65;;
6135;SDS011;24008;42.664;23.372;2022-07-22T09:56:03;13.93;;;6.65;;
6135;SDS011;24008;42.664;23.372;2022-07-22T09:58:32;8.90;;;5.70;;
6135;SDS011;24008;42.664;23.372;2022-07-22T10:01:00;6.38;;;4.90;;
6135;SDS011;24008;42.664;23.372;2022-07-22T10:03:30;7.88;;;5.40;;
6135;SDS011;24008;42.664;23.372;2022-07-22T10:06:00;8.25;;;6.07;;
6135;SDS011;24008;42.664;23.372;2022-07-22T10:08:28;7.78;;;5.20;;
6135;SDS011;24008;42.664;23.372;2022-07-22T10:10:59;8.38;;;5.53;;
6135;SDS011;24008;42.664;23.372;2022-07-22T10:13:28;6.13;;;5.30;;
6135;SDS011;24008;42.664;23.372;2022-07-22T10:15:56;8.93;;;5.30;;
6135;SDS011;24008;42.664;23.372;2022-07-22T10:18:24;6.30;;;4.95;;
6135;SDS011;24008;42.664;23.372;2022-07-22T10:21:03;7.45;;;5.05;;
6135;SDS011;24008;42.664;23.372;2022-07-22T10:23:31;6.68;;;5.47;;
6135;SDS011;24008;42.664;23.372;2022-07-22T10:26:02;6.68;;;5.25;;
6135;SDS011;24008;42.664;23.372;2022-07-22T10:28:31;7.30;;;5.80;;
6135;SDS011;24008;42.664;23.372;2022-07-22T10:31:19;11.13;;;5.50;;
6135;SDS011;24008;42.664;23.372;2022-07-22T10:33:48;7.75;;;5.65;;
6135;SDS011;24008;42.664;23.372;2022-07-22T10:36:29;7.60;;;5.75;;
6135;SDS011;24008;42.664;23.372;2022-07-22T10:39:01;7.35;;;5.07;;
6135;SDS011;24008;42.664;23.372;2022-07-22T10:41:32;9.02;;;4.95;;
6135;SDS011;24008;42.664;23.372;2022-07-22T10:44:00;6.50;;;5.13;;
6135;SDS011;24008;42.664;23.372;2022-07-22T10:46:41;9.63;;;5.70;;
6135;SDS011;24008;42.664;23.372;2022-07-22T10:49:15;11.07;;;6.22;;
6135;SDS011;24008;42.664;23.372;2022-07-22T10:57:36;8.93;;;5.85;;
6135;SDS011;24008;42.664;23.372;2022-07-22T11:00:04;9.75;;;5.53;;
6135;SDS011;24008;42.664;23.372;2022-07-22T11:02:32;9.15;;;5.93;;
6135;SDS011;24008;42.664;23.372;2022-07-22T11:05:00;10.73;;;5.85;;
6135;SDS011;24008;42.664;23.372;2022-07-22T11:07:28;12.85;;;6.10;;
6135;SDS011;24008;42.664;23.372;2022-07-22T11:10:07;7.22;;;5.03;;
6135;SDS011;24008;42.664;23.372;2022-07-22T11:12:37;6.95;;;6.00;;
6135;SDS011;24008;42.664;23.372;2022-07-22T11:15:05;5.97;;;5.38;;
6135;SDS011;24008;42.664;23.372;2022-07-22T11:17:33;10.13;;;6.10;;
6135;SDS011;24008;42.664;23.372;2022-07-22T11:20:00;7.60;;;5.05;;
6135;SDS011;24008;42.664;23.372;2022-07-22T11:22:28;9.23;;;5.28;;
6135;SDS011;24008;42.664;23.372;2022-07-22T11:24:56;9.38;;;6.03;;
6135;SDS011;24008;42.664;23.372;2022-07-22T11:27:23;8.07;;;5.18;;
6135;SDS011;24008;42.664;23.372;2022-07-22T11:29:52;7.43;;;5.55;;
6135;SDS011;24008;42.664;23.372;2022-07-22T11:32:22;8.90;;;6.93;;
6135;SDS011;24008;42.664;23.372;2022-07-22T11:34:49;10.85;;;6.00;;
6135;SDS011;24008;42.664;23.372;2022-07-22T11:37:18;8.98;;;5.25;;
6135;SDS011;24008;42.664;23.372;2022-07-22T11:39:48;6.47;;;5.88;;
6135;SDS011;24008;42.664;23.372;2022-07-22T11:42:15;8.25;;;6.30;;
6135;SDS011;24008;42.664;23.372;2022-07-22T11:44:42;7.45;;;5.80;;
6135;SDS011;24008;42.664;23.372;2022-07-22T11:47:11;15.15;;;6.50;;
6135;SDS011;24008;42.664;23.372;2022-07-22T11:49:38;11.88;;;6.05;;
6135;SDS011;24008;42.664;23.372;2022-07-22T11:52:06;8.02;;;5.97;;
6135;SDS011;24008;42.664;23.372;2022-07-22T11:54:37;9.48;;;5.63;;
6135;SDS011;24008;42.664;23.372;2022-07-22T11:57:05;10.23;;;5.90;;
6135;SDS011;24008;42.664;23.372;2022-07-22T11:59:32;7.72;;;5.97;;
6135;SDS011;24008;42.664;23.372;2022-07-22T12:02:01;10.38;;;6.30;;
6135;SDS011;24008;42.664;23.372;2022-07-22T12:04:30;7.38;;;5.60;;
6135;SDS011;24008;42.664;23.372;2022-07-22T12:06:58;11.27;;;6.32;;
6135;SDS011;24008;42.664;23.372;2022-07-22T12:09:28;10.82;;;6.28;;
6135;SDS011;24008;42.664;23.372;2022-07-22T12:11:59;9.50;;;6.03;;
6135;SDS011;24008;42.664;23.372;2022-07-22T12:14:26;13.80;;;6.60;;
6135;SDS011;24008;42.664;23.372;2022-07-22T12:16:56;8.23;;;6.05;;
6135;SDS011;24008;42.664;23.372;2022-07-22T12:19:24;9.75;;;5.70;;
6135;SDS011;24008;42.664;23.372;2022-07-22T12:21:56;8.23;;;6.05;;
6135;SDS011;24008;42.664;23.372;2022-07-22T12:24:25;8.90;;;5.75;;
6135;SDS011;24008;42.664;23.372;2022-07-22T12:26:54;9.38;;;6.38;;
6135;SDS011;24008;42.664;23.372;2022-07-22T12:29:23;14.73;;;6.63;;
6135;SDS011;24008;42.664;23.372;2022-07-22T12:31:52;18.05;;;7.53;;
6135;SDS011;24008;42.664;23.372;2022-07-22T12:34:31;11.98;;;6.38;;
6135;SDS011;24008;42.664;23.372;2022-07-22T12:37:10;13.02;;;5.60;;
6135;SDS011;24008;42.664;23.372;2022-07-22T12:39:52;7.55;;;6.00;;
6135;SDS011;24008;42.664;23.372;2022-07-22T12:42:23;11.90;;;5.57;;
6135;SDS011;24008;42.664;23.372;2022-07-22T12:44:52;13.27;;;5.40;;
6135;SDS011;24008;42.664;23.372;2022-07-22T12:47:40;6.38;;;5.00;;
6135;SDS011;24008;42.664;23.372;2022-07-22T12:50:17;9.85;;;5.00;;
6135;SDS011;24008;42.664;23.372;2022-07-22T12:52:47;7.97;;;5.18;;
6135;SDS011;24008;42.664;23.372;2022-07-22T12:55:15;10.52;;;5.47;;
6135;SDS011;24008;42.664;23.372;2022-07-22T12:57:42;5.75;;;4.30;;
6135;SDS011;24008;42.664;23.372;2022-07-22T13:00:09;7.32;;;4.97;;
6135;SDS011;24008;42.664;23.372;2022-07-22T13:02:37;7.13;;;5.15;;
6135;SDS011;24008;42.664;23.372;2022-07-22T13:05:04;5.82;;;4.60;;
6135;SDS011;24008;42.664;23.372;2022-07-22T13:07:32;7.70;;;5.10;;
6135;SDS011;24008;42.664;23.372;2022-07-22T13:10:00;6.45;;;4.95;;
6135;SDS011;24008;42.664;23.372;2022-07-22T13:12:27;10.02;;;5.22;;
6135;SDS011;24008;42.664;23.372;2022-07-22T13:14:54;5.90;;;4.82;;
6135;SDS011;24008;42.664;23.372;2022-07-22T13:17:20;8.18;;;4.78;;
6135;SDS011;24008;42.664;23.372;2022-07-22T13:19:47;11.27;;;4.40;;
6135;SDS011;24008;42.664;23.372;2022-07-22T13:22:14;7.97;;;4.65;;
6135;SDS011;24008;42.664;23.372;2022-07-22T13:24:41;9.55;;;4.90;;
6135;SDS011;24008;42.664;23.372;2022-07-22T13:27:12;9.57;;;4.20;;
6135;SDS011;24008;42.664;23.372;2022-07-22T13:29:38;11.02;;;4.70;;
6135;SDS011;24008;42.664;23.372;2022-07-22T13:32:06;6.65;;;4.55;;
6135;SDS011;24008;42.664;23.372;2022-07-22T13:34:32;7.35;;;4.82;;
6135;SDS011;24008;42.664;23.372;2022-07-22T13:36:59;7.60;;;4.78;;
6135;SDS011;24008;42.664;23.372;2022-07-22T13:39:27;7.07;;;4.90;;
6135;SDS011;24008;42.664;23.372;2022-07-22T13:41:53;7.10;;;4.60;;
6135;SDS011;24008;42.664;23.372;2022-07-22T13:44:22;10.20;;;4.68;;
6135;SDS011;24008;42.664;23.372;2022-07-22T13:46:49;11.70;;;4.93;;
6135;SDS011;24008;42.664;23.372;2022-07-22T13:49:15;9.10;;;4.88;;
6135;SDS011;24008;42.664;23.372;2022-07-22T13:51:42;8.05;;;4.53;;
6135;SDS011;24008;42.664;23.372;2022-07-22T13:54:09;7.68;;;4.60;;
6135;SDS011;24008;42.664;23.372;2022-07-22T13:56:36;8.45;;;5.00;;
6135;SDS011;24008;42.664;23.372;2022-07-22T13:59:03;5.70;;;4.50;;
6135;SDS011;24008;42.664;23.372;2022-07-22T14:01:31;10.98;;;5.22;;
6135;SDS011;24008;42.664;23.372;2022-07-22T14:03:58;7.47;;;4.53;;
6135;SDS011;24008;42.664;23.372;2022-07-22T14:06:27;6.55;;;4.75;;
6135;SDS011;24008;42.664;23.372;2022-07-22T14:08:54;7.90;;;4.88;;
6135;SDS011;24008;42.664;23.372;2022-07-22T14:11:21;9.95;;;5.13;;
6135;SDS011;24008;42.664;23.372;2022-07-22T14:13:48;9.10;;;4.65;;
6135;SDS011;24008;42.664;23.372;2022-07-22T14:16:15;8.32;;;5.03;;
6135;SDS011;24008;42.664;23.372;2022-07-22T14:19:03;10.30;;;5.35;;
6135;SDS011;24008;42.664;23.372;2022-07-22T14:21:31;6.75;;;5.40;;
6135;SDS011;24008;42.664;23.372;2022-07-22T14:23:58;7.68;;;4.72;;
6135;SDS011;24008;42.664;23.372;2022-07-22T14:26:25;7.13;;;5.15;;
6135;SDS011;24008;42.664;23.372;2022-07-22T14:28:52;10.52;;;4.85;;
6135;SDS011;24008;42.664;23.372;2022-07-22T14:31:19;10.68;;;5.03;;
6135;SDS011;24008;42.664;23.372;2022-07-22T14:33:46;6.40;;;4.47;;
6135;SDS011;24008;42.664;23.372;2022-07-22T14:36:14;10.35;;;4.50;;
6135;SDS011;24008;42.664;23.372;2022-07-22T14:38:41;8.73;;;4.78;;
6135;SDS011;24008;42.664;23.372;2022-07-22T14:41:09;6.93;;;4.78;;
6135;SDS011;24008;42.664;23.372;2022-07-22T14:43:36;14.27;;;4.72;;
6135;SDS011;24008;42.664;23.372;2022-07-22T14:46:03;8.20;;;4.68;;
6135;SDS011;24008;42.664;23.372;2022-07-22T14:48:32;8.40;;;4.53;;